Terminal Aerodrome Forecast
Issued by NWS

Home | Current Version | Previous Version | Graphics & Text | Print | Product List | Glossary On
Versions: 1 2 3 4 5 6 7 8 9 10 11 12 13
000
FTUS43 KBIS 011200 AAA
TAFDIK
TAF AMD
KDIK 011230Z 0113/0212 26010KT P6SM SCT045
     FM011400 29015KT P6SM SCT030
      TEMPO 0114/0117 4SM -SN BKN015
     FM012200 30011KT P6SM SCT100=

USA.gov is the U.S. government's official web portal to all federal, state and local government web resources and services.